Time;durP1;ratioP1;P1;durP2;ratioP2;P2;SDS_P1;SDS_P2;PMS_P1;PMS_P2;Temp;Humidity;BMP_temperature;BMP_pressure;BME280_temperature;BME280_humidity;BME280_pressure;Samples;Min_cycle;Max_cycle;Signal;HPM_P1;HPM_P2
2021/06/11 00:00:10;;;;;;;18.50;10.67;;;;;;;22.06;43.76;101433.34;5077256;28;20486;-46
2021/06/11 00:02:37;;;;;;;16.27;10.30;;;;;;;21.89;44.19;101421.88;5076067;28;20485;-50
2021/06/11 00:05:05;;;;;;;20.10;11.00;;;;;;;21.87;44.22;101429.75;5077171;28;20956;-46
2021/06/11 00:07:33;;;;;;;17.77;11.17;;;;;;;21.76;44.87;101431.41;5075648;28;20578;-46
2021/06/11 00:10:00;;;;;;;15.60;10.27;;;;;;;22.02;44.12;101421.06;5077149;28;20482;-50
2021/06/11 00:12:27;;;;;;;13.70;9.50;;;;;;;22.09;43.28;101419.31;5075692;28;20484;-48
2021/06/11 00:14:56;;;;;;;16.80;9.83;;;;;;;21.90;43.74;101421.88;5076932;28;20772;-49
2021/06/11 00:17:23;;;;;;;16.40;10.87;;;;;;;21.95;43.89;101422.75;5075692;28;20463;-49
2021/06/11 00:19:50;;;;;;;16.37;10.40;;;;;;;21.67;44.16;101419.97;5076845;28;20960;-49
2021/06/11 00:22:17;;;;;;;14.77;8.67;;;;;;;21.75;44.17;101422.69;5075991;28;20456;-50
2021/06/11 00:24:44;;;;;;;22.40;11.20;;;;;;;21.67;44.28;101422.59;5076707;28;20561;-48
2021/06/11 00:27:11;;;;;;;15.37;10.43;;;;;;;21.74;43.98;101417.41;5075766;28;20462;-47
2021/06/11 00:29:38;;;;;;;16.60;11.43;;;;;;;21.54;44.61;101412.88;5076298;28;20489;-48
2021/06/11 00:32:07;;;;;;;22.93;11.30;;;;;;;21.80;44.15;101414.81;5075322;28;20465;-49
2021/06/11 00:34:35;;;;;;;18.40;12.10;;;;;;;21.83;44.12;101410.47;5075903;28;20517;-49
2021/06/11 00:37:02;;;;;;;20.63;12.10;;;;;;;22.17;43.52;101403.59;5075251;28;20836;-50
2021/06/11 00:39:29;;;;;;;17.50;12.10;;;;;;;21.80;43.68;101420.06;5076462;28;20483;-48
2021/06/11 00:42:00;;;;;;;18.90;11.50;;;;;;;21.80;43.77;101409.56;5076571;28;20786;-48
2021/06/11 00:44:27;;;;;;;16.60;11.00;;;;;;;21.69;44.15;101404.22;5096442;28;20485;-47
2021/06/11 00:46:54;;;;;;;23.70;11.30;;;;;;;21.76;44.08;101395.56;5096351;28;20896;-51
2021/06/11 00:49:23;;;;;;;17.50;11.07;;;;;;;21.69;44.19;101402.50;5095322;28;20480;-46
2021/06/11 00:51:50;;;;;;;23.10;12.50;;;;;;;21.30;44.93;101410.13;5096686;28;20463;-50
2021/06/11 00:54:17;;;;;;;20.20;12.90;;;;;;;21.41;44.96;101401.41;5094672;28;20797;-47
2021/06/11 00:56:45;;;;;;;20.53;12.40;;;;;;;21.48;45.02;101407.59;5096409;28;20466;-53
2021/06/11 00:59:12;;;;;;;22.23;12.23;;;;;;;21.59;44.77;101401.53;5095118;28;20478;-47
2021/06/11 01:01:41;;;;;;;20.60;12.50;;;;;;;21.58;44.66;101399.78;5096607;28;20456;-51
2021/06/11 01:04:08;;;;;;;17.47;12.10;;;;;;;21.73;43.84;101406.03;5094791;28;20784;-47
2021/06/11 01:06:39;;;;;;;18.63;11.50;;;;;;;21.78;44.13;101406.06;5096009;28;20484;-46
2021/06/11 01:09:06;;;;;;;15.13;10.53;;;;;;;21.87;44.03;101406.09;5094631;28;20494;-47
2021/06/11 01:11:36;;;;;;;20.70;12.37;;;;;;;21.87;43.86;101403.47;5096434;28;20454;-50
2021/06/11 01:14:03;;;;;;;16.57;10.60;;;;;;;21.77;44.47;101406.91;5095040;28;20487;-50
2021/06/11 01:16:30;;;;;;;17.13;11.70;;;;;;;22.05;43.54;101409.69;5096121;28;20452;-49
2021/06/11 01:18:57;;;;;;;15.43;10.90;;;;;;;22.07;43.57;101405.31;5091697;28;20613;-47
2021/06/11 01:21:26;;;;;;;16.50;10.70;;;;;;;21.95;43.76;101409.63;5096428;28;20545;-50
2021/06/11 01:24:13;;;;;;;19.40;11.70;;;;;;;21.96;43.56;101410.53;5094821;28;20781;-47
2021/06/11 01:26:43;;;;;;;18.47;11.40;;;;;;;21.88;44.42;101418.34;5095632;28;20508;-46
2021/06/11 01:29:13;;;;;;;27.33;14.40;;;;;;;22.12;43.01;101406.22;5094263;28;20490;-44
2021/06/11 01:31:46;;;;;;;18.67;12.90;;;;;;;21.79;44.57;101403.44;5096163;28;20463;-50
2021/06/11 01:34:14;;;;;;;18.87;11.77;;;;;;;21.82;43.85;101400.84;5094617;28;20791;-48
2021/06/11 01:36:45;;;;;;;19.90;12.27;;;;;;;21.84;44.07;101406.97;5095483;28;20889;-48
2021/06/11 01:39:15;;;;;;;21.60;14.80;;;;;;;22.09;43.82;101393.94;5094203;28;20484;-50
2021/06/11 01:41:44;;;;;;;32.63;19.80;;;;;;;21.81;45.06;101396.47;5095723;28;20679;-46
2021/06/11 01:44:12;;;;;;;26.27;16.63;;;;;;;21.85;44.49;101398.22;5094201;28;20579;-46
2021/06/11 01:46:41;;;;;;;29.20;20.70;;;;;;;21.80;45.33;101410.44;5094918;28;20534;-50
2021/06/11 01:49:09;;;;;;;28.97;19.77;;;;;;;21.85;45.11;101398.22;5093661;28;20487;-45
2021/06/11 01:51:38;;;;;;;28.13;19.70;;;;;;;21.84;44.95;101406.09;5095809;28;20463;-51
2021/06/11 01:54:07;;;;;;;34.93;22.30;;;;;;;21.91;44.86;101399.13;5094245;28;20485;-46
2021/06/11 01:56:35;;;;;;;31.90;20.40;;;;;;;21.65;45.79;101400.72;5095748;28;20463;-49
2021/06/11 01:59:04;;;;;;;36.23;21.83;;;;;;;21.88;45.04;101397.34;5094122;28;20476;-49
2021/06/11 02:01:33;;;;;;;35.67;22.00;;;;;;;21.76;45.40;101397.28;5095845;28;20848;-46
2021/06/11 02:04:00;;;;;;;34.20;22.33;;;;;;;21.99;45.09;101389.50;5094277;28;20788;-49
2021/06/11 02:06:28;;;;;;;29.97;20.63;;;;;;;21.96;44.77;101393.00;5095158;28;20476;-46
2021/06/11 02:08:56;;;;;;;43.77;28.07;;;;;;;21.76;45.64;101399.91;5094023;28;20961;-48
2021/06/11 02:11:23;;;;;;;34.10;21.50;;;;;;;21.57;46.12;101407.66;5095648;28;20457;-48
2021/06/11 02:13:52;;;;;;;38.37;22.00;;;;;;;21.61;46.11;101398.94;5094080;28;20483;-45
2021/06/11 02:16:23;;;;;;;34.80;22.47;;;;;;;21.81;45.69;101399.09;5095068;28;20878;-47
2021/06/11 02:18:50;;;;;;;38.60;24.03;;;;;;;21.89;44.83;101395.59;5094052;28;20784;-46
2021/06/11 02:21:18;;;;;;;51.40;27.87;;;;;;;21.98;45.32;101393.00;5094905;28;20463;-47
2021/06/11 02:23:45;;;;;;;45.13;27.30;;;;;;;21.81;45.71;101393.84;5093626;28;20487;-51
2021/06/11 02:26:13;;;;;;;42.13;26.23;;;;;;;21.54;46.34;101402.38;5095063;28;20771;-51
2021/06/11 02:28:41;;;;;;;38.57;24.77;;;;;;;21.28;47.16;101403.09;5093889;28;20491;-46
2021/06/11 02:31:08;;;;;;;43.33;27.77;;;;;;;21.29;47.79;101404.84;5095153;28;20469;-47
2021/06/11 02:33:37;;;;;;;41.57;26.17;;;;;;;21.54;47.12;101402.38;5094126;28;20477;-48
2021/06/11 02:36:04;;;;;;;42.50;28.20;;;;;;;21.54;47.03;101402.38;5094885;28;20459;-47
2021/06/11 02:38:31;;;;;;;47.07;28.57;;;;;;;21.51;47.09;101392.75;5094075;28;20475;-46
2021/06/11 02:40:59;;;;;;;69.70;42.80;;;;;;;21.22;48.92;101395.19;5095208;28;20775;-48
2021/06/11 02:43:26;;;;;;;49.57;30.10;;;;;;;21.42;47.85;101404.06;5093957;28;20484;-47
2021/06/11 02:46:03;;;;;;;42.07;25.87;;;;;;;21.45;47.21;101401.44;5094907;28;20483;-48
2021/06/11 02:48:34;;;;;;;40.07;26.37;;;;;;;21.55;47.13;101402.41;5093803;28;20540;-48
2021/06/11 02:51:07;;;;;;;43.60;25.60;;;;;;;21.61;47.03;101403.28;5095249;28;20922;-47
2021/06/11 02:53:36;;;;;;;43.37;27.60;;;;;;;21.57;47.49;101395.41;5093812;28;20486;-47
2021/06/11 02:56:08;;;;;;;45.30;28.70;;;;;;;21.58;47.32;101396.28;5095165;28;20455;-47
2021/06/11 02:58:43;;;;;;;44.93;27.57;;;;;;;21.73;46.96;101402.53;5096085;28;21051;-49
2021/06/11 03:01:11;;;;;;;52.33;31.93;;;;;;;21.51;48.05;101402.34;5098351;28;20458;-50
2021/06/11 03:03:40;;;;;;;51.50;29.90;;;;;;;21.20;48.88;101402.13;5097759;28;20479;-52
2021/06/11 03:06:11;;;;;;;49.47;32.50;;;;;;;21.05;49.29;101401.16;5098490;28;20484;-51
2021/06/11 03:08:41;;;;;;;48.20;29.20;;;;;;;21.36;48.49;101403.13;5097215;28;20486;-50
2021/06/11 03:11:12;;;;;;;47.43;29.87;;;;;;;21.37;48.65;101400.53;5098856;28;20913;-49
2021/06/11 03:13:40;;;;;;;50.67;31.60;;;;;;;21.35;48.62;101401.38;5097309;28;20472;-48
2021/06/11 03:16:07;;;;;;;49.93;31.83;;;;;;;21.08;49.58;101402.94;5098498;28;20775;-51
2021/06/11 03:18:36;;;;;;;56.43;35.23;;;;;;;21.20;49.54;101405.66;5097118;28;20525;-47
2021/06/11 03:21:11;;;;;;;63.67;32.40;;;;;;;21.36;48.91;101396.16;5098426;28;20455;-50
2021/06/11 03:23:42;;;;;;;62.87;38.33;;;;;;;21.43;49.70;101394.44;5097090;28;20479;-49
2021/06/11 03:26:12;;;;;;;56.40;34.53;;;;;;;21.37;49.37;101394.41;5098374;28;20760;-50
2021/06/11 03:28:43;;;;;;;62.70;36.13;;;;;;;21.37;49.66;101392.66;5094656;28;20480;-48
2021/06/11 03:31:14;;;;;;;54.80;35.23;;;;;;;21.42;49.20;101388.31;5098220;28;20841;-51
2021/06/11 03:33:45;;;;;;;59.43;35.63;;;;;;;21.30;49.77;101388.22;5096978;28;20510;-50
2021/06/11 03:36:17;;;;;;;61.97;36.37;;;;;;;21.90;48.27;101381.59;5097762;28;20464;-49
2021/06/11 03:38:49;;;;;;;52.37;34.43;;;;;;;21.88;48.21;101386.84;5096825;28;20953;-50
2021/06/11 03:41:16;;;;;;;60.03;35.27;;;;;;;21.48;49.78;101395.34;5098233;28;20771;-49
2021/06/11 03:43:44;;;;;;;60.37;36.57;;;;;;;21.34;50.12;101389.13;5096759;28;20477;-49
2021/06/11 03:46:14;;;;;;;54.97;34.20;;;;;;;21.52;49.48;101396.22;5097627;28;20495;-53
2021/06/11 03:48:43;;;;;;;73.90;43.43;;;;;;;21.55;50.02;101385.75;5096440;28;20477;-49
2021/06/11 03:51:12;;;;;;;70.17;42.43;;;;;;;21.40;51.04;101384.81;5097917;28;20467;-51
2021/06/11 03:53:42;;;;;;;57.70;36.70;;;;;;;21.69;49.47;101385.84;5096442;28;20494;-50
2021/06/11 03:56:10;;;;;;;72.10;43.27;;;;;;;21.74;49.65;101388.53;5097420;28;20811;-50
2021/06/11 03:58:40;;;;;;;72.03;43.93;;;;;;;21.99;49.81;101389.50;5096292;28;20936;-50
2021/06/11 04:01:08;;;;;;;59.90;37.63;;;;;;;21.97;49.44;101392.16;5097673;28;20754;-45
2021/06/11 04:03:37;;;;;;;71.70;43.53;;;;;;;21.88;49.36;101384.22;5096867;28;20898;-49
2021/06/11 04:06:07;;;;;;;65.23;38.80;;;;;;;22.10;49.11;101386.94;5097394;28;20485;-51
2021/06/11 04:08:34;;;;;;;62.23;38.23;;;;;;;22.19;48.63;101379.09;5095243;28;20487;-47
2021/06/11 04:11:05;;;;;;;65.83;40.10;;;;;;;22.28;48.70;101387.84;5097388;28;20454;-49
2021/06/11 04:13:43;;;;;;;62.13;37.87;;;;;;;22.37;48.89;101385.28;5096161;28;20500;-48
2021/06/11 04:16:14;;;;;;;72.10;42.37;;;;;;;22.36;48.97;101379.13;5097322;28;20531;-50
2021/06/11 04:18:42;;;;;;;72.33;44.03;;;;;;;22.43;49.25;101382.66;5095870;28;20826;-48
2021/06/11 04:21:11;;;;;;;66.37;41.80;;;;;;;22.47;48.79;101387.06;5097241;28;20453;-47
2021/06/11 04:23:40;;;;;;;74.67;45.90;;;;;;;22.45;49.22;101386.16;5095389;28;20484;-47
2021/06/11 04:26:08;;;;;;;78.93;48.87;;;;;;;22.22;50.58;101389.63;5096822;28;20487;-47
2021/06/11 04:28:37;;;;;;;74.63;45.03;;;;;;;22.39;50.00;101383.50;5095678;28;20759;-46
2021/06/11 04:31:04;;;;;;;82.33;47.10;;;;;;;22.58;49.63;101384.47;5097031;28;20884;-50
2021/06/11 04:33:32;;;;;;;90.40;54.07;;;;;;;22.76;49.47;101388.88;5095715;28;20485;-48
2021/06/11 04:35:59;;;;;;;89.90;53.80;;;;;;;22.80;49.53;101387.13;5096714;28;20462;-48
2021/06/11 04:38:28;;;;;;;103.87;53.93;;;;;;;22.94;49.46;101389.75;5095603;28;20470;-50
2021/06/11 04:40:55;;;;;;;90.00;52.03;;;;;;;22.95;49.10;101383.63;5096809;28;20464;-44
2021/06/11 04:43:24;;;;;;;86.37;52.70;;;;;;;23.00;49.23;101389.75;5095169;28;20481;-47
2021/06/11 04:45:52;;;;;;;96.37;53.03;;;;;;;23.07;49.11;101388.00;5096501;28;20532;-47
2021/06/11 04:48:19;;;;;;;88.20;50.40;;;;;;;23.11;49.07;101392.38;5095349;28;20483;-47
2021/06/11 04:50:46;;;;;;;89.60;49.17;;;;;;;23.36;48.23;101394.13;5096743;28;20450;-47
2021/06/11 04:53:13;;;;;;;82.27;50.93;;;;;;;23.18;48.79;101395.91;5095119;28;20811;-48
2021/06/11 04:55:40;;;;;;;75.73;45.63;;;;;;;23.38;47.93;101392.41;5096197;28;20912;-47
2021/06/11 04:58:07;;;;;;;80.83;48.00;;;;;;;23.25;48.50;101380.97;5095292;28;20482;-48
2021/06/11 05:00:35;;;;;;;85.30;49.80;;;;;;;23.49;47.61;101385.34;5096538;28;20462;-50
2021/06/11 05:03:03;;;;;;;75.43;46.10;;;;;;;23.44;47.67;101381.84;5094893;28;20488;-48
2021/06/11 05:05:30;;;;;;;72.10;44.97;;;;;;;23.23;48.33;101378.34;5094949;28;20485;-47
2021/06/11 05:07:58;;;;;;;92.07;51.53;;;;;;;23.31;48.31;101380.97;5095074;28;20480;-45
2021/06/11 05:10:25;;;;;;;85.50;48.00;;;;;;;23.31;48.58;101376.63;5096517;28;20477;-48
2021/06/11 05:12:52;;;;;;;80.60;49.50;;;;;;;23.68;48.05;101380.91;5095809;28;20475;-49
2021/06/11 05:15:20;;;;;;;93.07;54.50;;;;;;;23.70;48.16;101381.75;5096285;28;20454;-50
2021/06/11 05:17:48;;;;;;;85.50;51.43;;;;;;;23.32;49.16;101383.63;5094963;28;20952;-46
2021/06/11 05:20:16;;;;;;;104.87;58.67;;;;;;;23.53;49.13;101376.56;5095946;28;20791;-51
2021/06/11 05:22:43;;;;;;;100.57;57.10;;;;;;;23.66;48.67;101379.16;5094657;28;20481;-47
2021/06/11 05:25:11;;;;;;;91.83;54.27;;;;;;;23.65;48.97;101375.66;5096188;28;20461;-47
2021/06/11 05:27:38;;;;;;;110.27;63.63;;;;;;;23.83;48.66;101384.34;5094358;28;20481;-47
2021/06/11 05:30:06;;;;;;;111.27;62.90;;;;;;;23.88;48.83;101377.31;5095937;28;20484;-48
2021/06/11 05:32:34;;;;;;;104.97;61.97;;;;;;;23.73;48.97;101370.34;5094590;28;20507;-50
2021/06/11 05:35:03;;;;;;;112.87;63.53;;;;;;;23.32;50.32;101372.19;5095754;28;20830;-45
2021/06/11 05:37:30;;;;;;;103.03;60.77;;;;;;;23.63;49.86;101379.19;5094114;28;20475;-47
2021/06/11 05:39:57;;;;;;;104.60;58.27;;;;;;;24.14;48.43;101369.34;5096034;28;20483;-47
2021/06/11 05:42:24;;;;;;;100.83;58.57;;;;;;;24.27;48.46;101379.81;5094594;28;20475;-52
2021/06/11 05:44:51;;;;;;;102.97;60.77;;;;;;;24.04;48.59;101375.50;5095978;28;20454;-50
2021/06/11 05:47:18;;;;;;;97.20;54.93;;;;;;;24.27;48.35;101374.53;5093671;28;20966;-45
2021/06/11 05:49:45;;;;;;;100.90;57.47;;;;;;;24.48;47.19;101372.66;5095535;28;20488;-45
2021/06/11 05:52:14;;;;;;;108.23;57.20;;;;;;;24.66;47.11;101369.03;5094546;28;20454;-49
2021/06/11 05:54:41;;;;;;;97.67;57.33;;;;;;;24.62;47.55;101376.06;5095404;28;20468;-50
2021/06/11 05:57:08;;;;;;;96.87;56.70;;;;;;;24.70;47.08;101376.00;5094222;28;20475;-48
2021/06/11 05:59:35;;;;;;;101.00;57.80;;;;;;;24.93;46.34;101373.19;5095056;28;20963;-45
2021/06/11 06:02:03;;;;;;;91.50;54.80;;;;;;;24.61;47.67;101373.44;5094291;28;20921;-47
2021/06/11 06:04:30;;;;;;;81.37;48.70;;;;;;;23.82;49.02;101378.22;5095449;28;20500;-49
2021/06/11 06:06:58;;;;;;;71.20;44.60;;;;;;;23.84;47.77;101379.09;5095012;28;20480;-48
2021/06/11 06:09:26;;;;;;;75.67;44.53;;;;;;;24.10;47.65;101370.22;5094853;28;20553;-46
2021/06/11 06:11:53;;;;;;;67.00;42.37;;;;;;;24.04;47.51;101370.22;5095714;28;20484;-49
2021/06/11 06:14:20;;;;;;;100.83;55.73;;;;;;;24.36;47.17;101370.97;5094215;28;20505;-51
2021/06/11 06:16:47;;;;;;;67.40;42.80;;;;;;;24.97;46.20;101367.91;5095070;28;20450;-50
2021/06/11 06:19:14;;;;;;;65.90;40.83;;;;;;;25.36;45.11;101357.84;5093118;28;20477;-47
2021/06/11 06:21:46;;;;;;;90.30;52.17;;;;;;;25.12;46.29;101359.00;5095467;28;20453;-50
2021/06/11 06:24:13;;;;;;;60.60;37.87;;;;;;;25.06;44.74;101362.53;5093755;28;20485;-49
2021/06/11 06:26:41;;;;;;;51.00;33.53;;;;;;;24.97;43.06;101365.28;5094846;28;20484;-48
2021/06/11 06:29:08;;;;;;;51.83;31.27;;;;;;;24.66;43.16;101361.09;5093577;28;20951;-46
2021/06/11 06:31:35;;;;;;;72.20;45.00;;;;;;;24.82;43.75;101356.63;5096445;28;20461;-48
2021/06/11 06:34:02;;;;;;;42.53;28.10;;;;;;;24.68;43.15;101362.81;5097731;28;20482;-46
2021/06/11 06:36:30;;;;;;;50.27;30.70;;;;;;;25.17;42.11;101362.47;5098913;28;20458;-45
2021/06/11 06:39:00;;;;;;;41.73;27.07;;;;;;;25.56;41.50;101370.00;5097802;28;20926;-50
2021/06/11 06:41:27;;;;;;;37.10;24.57;;;;;;;25.59;40.54;101362.91;5099105;28;20898;-47
2021/06/11 06:43:56;;;;;;;41.90;26.17;;;;;;;25.65;40.86;101363.72;5097802;28;20490;-47
2021/06/11 06:46:23;;;;;;;54.30;34.17;;;;;;;26.06;40.70;101358.81;5098909;28;20459;-49
2021/06/11 06:48:50;;;;;;;30.90;19.57;;;;;;;25.61;39.32;101369.06;5097522;28;20483;-52
2021/06/11 06:51:20;;;;;;;43.37;24.77;;;;;;;25.87;40.56;101369.63;5098949;28;20448;-47
2021/06/11 06:53:47;;;;;;;26.50;17.33;;;;;;;25.71;38.39;101374.22;5097483;28;20480;-48
2021/06/11 06:56:14;;;;;;;23.87;17.00;;;;;;;25.91;38.81;101366.06;5098440;28;20460;-49
2021/06/11 06:58:42;;;;;;;25.47;16.60;;;;;;;25.70;38.66;101368.09;5097451;28;20509;-50
2021/06/11 07:01:10;;;;;;;28.30;18.10;;;;;;;25.97;38.58;101360.69;5098586;28;20461;-49
2021/06/11 07:03:37;;;;;;;25.17;15.63;;;;;;;26.39;37.59;101357.50;5096852;28;20475;-51
2021/06/11 07:06:05;;;;;;;23.83;16.63;;;;;;;26.14;38.11;101356.94;5098343;28;20461;-49
2021/06/11 07:08:32;;;;;;;23.67;15.73;;;;;;;26.30;38.18;101357.59;5096954;28;20932;-50
2021/06/11 07:10:59;;;;;;;28.63;18.30;;;;;;;26.58;38.05;101358.97;5098629;28;20477;-46
2021/06/11 07:13:31;;;;;;;29.47;16.10;;;;;;;26.33;38.15;101367.28;5097114;28;20488;-46
2021/06/11 07:15:58;;;;;;;25.27;15.43;;;;;;;26.52;37.72;101362.59;5098538;28;20462;-51
2021/06/11 07:18:26;;;;;;;23.33;14.20;;;;;;;26.09;37.62;101364.06;5097580;28;20794;-47
2021/06/11 07:20:53;;;;;;;24.03;16.90;;;;;;;26.67;38.09;101366.78;5098422;28;20469;-46
2021/06/11 07:23:21;;;;;;;25.00;16.70;;;;;;;26.71;37.16;101363.16;5096828;28;20598;-44
2021/06/11 07:25:48;;;;;;;19.43;13.37;;;;;;;26.49;37.12;101365.28;5098210;28;20464;-50
2021/06/11 07:28:15;;;;;;;18.17;11.90;;;;;;;27.33;36.96;101367.41;5096823;28;20482;-47
2021/06/11 07:30:42;;;;;;;16.00;9.70;;;;;;;26.71;37.29;101368.44;5098060;28;20476;-47
2021/06/11 07:33:09;;;;;;;18.40;10.43;;;;;;;26.98;37.11;101368.03;5096853;28;20486;-48
2021/06/11 07:35:38;;;;;;;23.23;12.20;;;;;;;27.23;36.95;101372.00;5097655;28;21274;-46
2021/06/11 07:38:05;;;;;;;22.00;14.47;;;;;;;27.29;36.24;101365.72;5096506;28;20772;-48
2021/06/11 07:40:52;;;;;;;25.97;14.87;;;;;;;27.12;37.62;101375.75;5098317;28;20482;-47
2021/06/11 07:43:20;;;;;;;19.97;12.27;;;;;;;28.00;36.53;101378.47;5095396;28;20573;-49
2021/06/11 07:45:47;;;;;;;20.20;12.37;;;;;;;28.11;37.03;101372.94;5097686;28;20462;-47
2021/06/11 07:48:14;;;;;;;20.60;13.80;;;;;;;28.17;36.46;101371.03;5096370;28;20481;-49
2021/06/11 07:50:43;;;;;;;25.10;13.87;;;;;;;28.19;37.62;101368.31;5097921;28;20468;-49
2021/06/11 07:53:11;;;;;;;19.50;13.07;;;;;;;28.34;35.52;101377.75;5096541;28;20478;-47
2021/06/11 07:55:39;;;;;;;20.07;12.47;;;;;;;28.02;36.03;101374.91;5097534;28;20777;-52
2021/06/11 07:58:06;;;;;;;19.20;10.70;;;;;;;28.44;35.61;101368.66;5096339;28;20758;-52
2021/06/11 08:00:33;;;;;;;16.70;12.40;;;;;;;28.29;35.08;101363.72;5097719;28;20461;-48
2021/06/11 08:03:03;;;;;;;16.10;10.30;;;;;;;27.68;36.83;101374.72;5095158;28;20478;-51
2021/06/11 08:05:30;;;;;;;16.97;10.70;;;;;;;27.92;36.81;101370.69;5097339;28;20454;-48
2021/06/11 08:07:58;;;;;;;18.50;12.00;;;;;;;28.26;35.39;101372.59;5095760;28;20512;-50
2021/06/11 08:10:26;;;;;;;14.60;7.43;;;;;;;27.88;35.30;101361.94;5097436;28;20488;-49
2021/06/11 08:12:53;;;;;;;11.30;6.40;;;;;;;28.10;36.78;101364.09;5096066;28;20486;-51
2021/06/11 08:15:21;;;;;;;7.90;5.27;;;;;;;28.65;34.20;101363.75;5097128;28;20781;-48
2021/06/11 08:17:48;;;;;;;7.40;4.77;;;;;;;28.59;34.05;101361.25;5095904;28;20482;-47
2021/06/11 08:20:16;;;;;;;8.07;4.67;;;;;;;28.87;33.59;101365.91;5097386;28;20481;-48
2021/06/11 08:22:43;;;;;;;9.80;5.10;;;;;;;29.07;33.04;101367.16;5096621;28;20480;-47
2021/06/11 08:25:12;;;;;;;10.97;4.70;;;;;;;28.28;33.94;101361.97;5097314;28;20446;-50
2021/06/11 08:27:41;;;;;;;10.00;4.97;;;;;;;28.43;33.15;101360.75;5095233;28;20783;-46
2021/06/11 08:30:09;;;;;;;7.97;4.23;;;;;;;28.25;33.66;101362.91;5096780;28;20485;-49
2021/06/11 08:32:52;;;;;;;6.97;4.80;;;;;;;28.35;33.43;101363.56;5095647;28;20770;-52
2021/06/11 08:35:20;;;;;;;13.10;5.10;;;;;;;28.58;33.56;101362.16;5096797;28;20472;-49
2021/06/11 08:37:47;;;;;;;6.57;4.63;;;;;;;28.64;34.06;101369.97;5095506;28;20478;-48
2021/06/11 08:40:16;;;;;;;7.77;4.17;;;;;;;28.89;34.18;101373.81;5096804;28;20481;-50
2021/06/11 08:42:44;;;;;;;9.70;4.80;;;;;;;29.06;33.72;101376.03;5095513;28;20495;-51
2021/06/11 08:45:12;;;;;;;11.60;5.17;;;;;;;28.92;33.57;101379.91;5097090;28;20467;-46
2021/06/11 08:47:46;;;;;;;7.70;4.97;;;;;;;29.09;32.94;101370.63;5095139;28;20473;-50
2021/06/11 08:50:15;;;;;;;9.13;5.50;;;;;;;29.25;32.88;101368.44;5096596;28;20572;-48
2021/06/11 08:52:43;;;;;;;7.37;4.80;;;;;;;29.46;33.30;101364.31;5095198;28;20488;-49
2021/06/11 08:55:11;;;;;;;9.30;5.47;;;;;;;29.26;32.83;101374.63;5095716;28;20457;-49
2021/06/11 08:57:39;;;;;;;18.53;13.40;;;;;;;29.40;32.96;101369.81;5094896;28;20480;-47
2021/06/11 09:00:08;;;;;;;9.57;4.83;;;;;;;29.38;32.99;101363.66;5096009;28;20465;-48
2021/06/11 09:03:15;;;;;;;8.40;5.07;;;;;;;29.55;33.86;101368.53;5095234;28;20528;-50
2021/06/11 09:05:43;;;;;;;13.43;7.20;;;;;;;29.56;34.48;101369.38;5014393;28;20449;-50
2021/06/11 09:08:18;;;;;;;10.40;5.47;;;;;;;29.54;33.94;101366.78;5077422;28;20959;-53
2021/06/11 09:10:47;;;;;;;10.60;4.40;;;;;;;29.22;34.33;101372.03;5096303;28;20464;-49
2021/06/11 09:13:26;;;;;;;10.63;5.40;;;;;;;29.44;33.56;101365.28;5094967;28;20478;-50
2021/06/11 09:16:06;;;;;;;8.03;5.07;;;;;;;29.80;32.05;101366.94;5095787;28;20453;-50
2021/06/11 09:18:42;;;;;;;8.87;4.33;;;;;;;29.80;32.97;101361.63;5094834;28;20572;-51
2021/06/11 09:21:33;;;;;;;7.97;4.10;;;;;;;29.08;33.63;101372.41;5096216;28;20453;-50
2021/06/11 09:24:15;;;;;;;8.83;4.33;;;;;;;29.97;32.42;101367.31;5094667;28;20481;-52
2021/06/11 09:26:42;;;;;;;9.47;4.97;;;;;;;30.34;32.98;101367.13;5095938;28;20769;-53
2021/06/11 09:29:25;;;;;;;10.73;5.63;;;;;;;30.12;32.27;101357.13;5094448;28;20486;-45
2021/06/11 09:31:53;;;;;;;12.00;6.20;;;;;;;30.33;32.81;101363.56;5096351;28;20462;-45
2021/06/11 09:34:22;;;;;;;8.80;4.80;;;;;;;30.53;33.35;101354.94;5094569;28;20483;-50
2021/06/11 09:37:00;;;;;;;10.50;4.77;;;;;;;30.13;32.24;101362.41;5095418;28;20473;-48
2021/06/11 09:39:41;;;;;;;9.30;5.17;;;;;;;29.47;33.88;101365.19;5093057;28;20916;-51
2021/06/11 09:42:10;;;;;;;11.30;7.23;;;;;;;30.36;32.12;101360.81;5094677;28;20503;-47
2021/06/11 09:44:39;;;;;;;11.80;7.33;;;;;;;30.49;32.05;101355.09;5095512;28;20457;-48
2021/06/11 09:47:06;;;;;;;12.00;7.33;;;;;;;30.26;32.67;101354.94;5094071;28;20462;-48
2021/06/11 09:49:44;;;;;;;14.87;7.60;;;;;;;30.01;32.21;101350.34;5095408;28;20576;-51
2021/06/11 09:52:12;;;;;;;10.23;5.93;;;;;;;30.05;33.92;101354.63;5094714;28;20475;-51
2021/06/11 09:54:39;;;;;;;14.23;7.03;;;;;;;30.99;31.89;101347.22;5095630;28;20786;-50
2021/06/11 09:57:17;;;;;;;10.03;4.80;;;;;;;31.09;32.44;101344.22;5094197;28;20915;-49
2021/06/11 09:59:46;;;;;;;13.33;7.20;;;;;;;31.39;30.83;101336.91;5095494;28;20480;-50
2021/06/11 10:02:14;;;;;;;10.07;5.57;;;;;;;31.36;31.07;101345.03;5094693;28;20457;-53
2021/06/11 10:04:42;;;;;;;12.20;6.77;;;;;;;30.81;31.95;101354.03;5095513;28;20453;-51
2021/06/11 10:07:15;;;;;;;9.53;4.80;;;;;;;31.11;32.19;101347.69;5092900;28;20450;-48
2021/06/11 10:09:42;;;;;;;14.40;7.63;;;;;;;31.12;31.88;101352.09;5094992;28;20485;-50
2021/06/11 10:12:10;;;;;;;11.37;6.20;;;;;;;30.96;31.87;101349.13;5094146;28;20453;-48
2021/06/11 10:14:37;;;;;;;11.23;5.13;;;;;;;31.33;32.31;101346.94;5095479;28;20465;-48
2021/06/11 10:17:07;;;;;;;11.67;7.20;;;;;;;31.49;30.89;101348.13;5093969;28;20453;-46
2021/06/11 10:19:35;;;;;;;14.13;8.20;;;;;;;31.27;30.97;101345.38;5094912;28;20535;-48
2021/06/11 10:22:03;;;;;;;12.70;6.70;;;;;;;31.16;31.68;101344.88;5094108;28;20454;-51
2021/06/11 10:24:30;;;;;;;13.13;6.30;;;;;;;31.08;32.29;101346.03;5095009;28;20561;-50
2021/06/11 10:26:57;;;;;;;14.40;8.70;;;;;;;30.59;31.58;101346.75;5094870;28;20457;-48
2021/06/11 10:29:24;;;;;;;16.73;8.73;;;;;;;30.84;31.67;101337.09;5094613;28;20488;-49
2021/06/11 10:31:52;;;;;;;12.90;7.63;;;;;;;30.53;32.06;101338.97;5095177;28;20461;-49
2021/06/11 10:34:50;;;;;;;13.60;8.67;;;;;;;31.39;30.64;101331.59;5093965;28;20484;-48
2021/06/11 10:37:35;;;;;;;12.07;8.40;;;;;;;30.40;32.25;101334.97;5093535;28;20470;-47
2021/06/11 10:40:21;;;;;;;15.17;8.20;;;;;;;31.13;31.74;101341.38;5095248;28;20489;-52
2021/06/11 10:42:48;;;;;;;13.00;7.03;;;;;;;30.82;33.00;101336.28;5093824;28;20488;-50
2021/06/11 10:45:41;;;;;;;16.13;8.67;;;;;;;31.49;31.57;101337.47;5095088;28;20504;-50
2021/06/11 10:48:09;;;;;;;10.60;7.00;;;;;;;31.55;30.94;101331.03;5093569;28;20802;-50
2021/06/11 10:50:39;;;;;;;11.63;6.70;;;;;;;31.78;30.47;101335.47;5094919;28;20457;-51
2021/06/11 10:53:12;;;;;;;14.50;8.00;;;;;;;31.71;30.67;101347.31;5093296;28;20477;-50
2021/06/11 10:55:46;;;;;;;9.80;5.87;;;;;;;31.49;32.29;101337.47;5094693;28;20761;-51
2021/06/11 10:58:32;;;;;;;10.33;5.60;;;;;;;30.90;31.72;101336.88;5093790;28;20469;-50
2021/06/11 11:00:59;;;;;;;8.17;5.43;;;;;;;31.33;32.75;101331.81;5094731;28;20486;-47
2021/06/11 11:03:31;;;;;;;13.20;6.57;;;;;;;30.93;32.15;101333.22;5093477;28;20927;-47
2021/06/11 11:06:30;;;;;;;10.27;5.63;;;;;;;31.30;31.80;101329.28;5094416;28;20456;-49
2021/06/11 11:08:59;;;;;;;9.47;6.50;;;;;;;31.02;32.71;101332.94;5093442;28;20485;-47
2021/06/11 11:11:35;;;;;;;18.20;6.50;;;;;;;31.24;31.68;101327.69;5094953;28;20540;-53
2021/06/11 11:14:04;;;;;;;10.13;5.97;;;;;;;31.51;32.09;101329.41;5093582;28;20488;-50
2021/06/11 11:16:37;;;;;;;18.30;7.87;;;;;;;31.74;30.46;101314.31;5094553;28;20772;-48
2021/06/11 11:19:06;;;;;;;10.03;5.77;;;;;;;31.68;32.03;101311.91;5096781;28;20766;-54
2021/06/11 11:21:35;;;;;;;7.93;5.13;;;;;;;32.53;30.21;101304.97;5098303;28;20897;-48